createdAt,value
2023-02-01T00:01:16.307Z,55.40
2023-02-01T00:03:44.401Z,55.57
2023-02-01T00:06:12.217Z,55.35
2023-02-01T00:08:39.944Z,55.44
2023-02-01T00:11:12.585Z,55.05
2023-02-01T00:13:42.681Z,55.37
2023-02-01T00:16:22.921Z,55.15
2023-02-01T00:18:53.565Z,55.27
2023-02-01T00:21:22.513Z,55.25
2023-02-01T00:23:50.240Z,55.32
2023-02-01T00:26:31.743Z,55.14
2023-02-01T00:29:00.648Z,55.38
2023-02-01T00:31:29.688Z,55.20
2023-02-01T00:33:57.938Z,55.22
2023-02-01T00:36:25.991Z,55.25
2023-02-01T00:38:53.798Z,55.33
2023-02-01T00:41:23.232Z,55.30
2023-02-01T00:43:52.146Z,55.29
2023-02-01T00:46:22.461Z,55.50
2023-02-01T00:48:50.592Z,55.67
2023-02-01T00:51:25.127Z,55.44
2023-02-01T00:53:53.870Z,55.59
2023-02-01T00:56:22.484Z,55.45
2023-02-01T00:58:50.706Z,55.56
2023-02-01T01:01:23.106Z,55.39
2023-02-01T01:03:58.647Z,55.23
2023-02-01T01:06:31.108Z,55.29
2023-02-01T01:09:01.728Z,54.97
2023-02-01T01:11:33.119Z,55.27
2023-02-01T01:14:01.817Z,55.23
2023-02-01T01:16:32.529Z,55.15
2023-02-01T01:19:00.889Z,55.29
2023-02-01T01:21:30.519Z,55.34
2023-02-01T01:23:59.088Z,55.38
2023-02-01T01:26:29.865Z,55.16
2023-02-01T01:28:59.946Z,55.23
2023-02-01T01:31:29.251Z,54.98
2023-02-01T01:34:00.325Z,55.05
2023-02-01T01:36:29.728Z,55.26
2023-02-01T01:38:57.828Z,55.27
2023-02-01T01:41:31.619Z,54.88
2023-02-01T01:44:05.894Z,54.97
2023-02-01T01:46:39.097Z,54.82
2023-02-01T01:49:16.389Z,54.86
2023-02-01T01:52:02.054Z,54.86
2023-02-01T01:54:39.766Z,54.63
2023-02-01T01:57:26.931Z,54.61
2023-02-01T02:00:04.048Z,54.78
2023-02-01T02:02:43.944Z,54.82
2023-02-01T02:05:13.363Z,54.60
2023-02-01T02:07:47.282Z,54.50
2023-02-01T02:10:16.724Z,54.40
2023-02-01T02:12:48.778Z,54.27
2023-02-01T02:15:18.049Z,54.19
2023-02-01T02:18:12.106Z,54.24
2023-02-01T02:21:18.584Z,53.97
2023-02-01T02:24:29.183Z,54.02
2023-02-01T02:27:23.908Z,54.50
2023-02-01T02:30:29.970Z,54.02
2023-02-01T02:33:23.194Z,54.19
2023-02-01T02:36:19.088Z,54.12
2023-02-01T02:39:14.103Z,54.00
2023-02-01T02:42:27.509Z,54.09
2023-02-01T02:46:01.440Z,54.19
2023-02-01T02:49:06.280Z,54.53
2023-02-01T02:52:38.195Z,54.52
2023-02-01T02:55:09.557Z,54.71
2023-02-01T02:58:01.383Z,54.93
2023-02-01T03:00:52.425Z,54.70
2023-02-01T03:03:39.059Z,54.72
2023-02-01T03:06:18.255Z,54.53
2023-02-01T03:08:47.244Z,54.62
2023-02-01T03:11:16.767Z,54.64
2023-02-01T03:14:01.704Z,54.64
2023-02-01T03:16:34.827Z,54.38
2023-02-01T03:19:09.968Z,54.39
2023-02-01T03:22:05.479Z,54.24
2023-02-01T03:24:47.234Z,54.17
2023-02-01T03:27:47.860Z,54.50
2023-02-01T03:30:23.730Z,54.32
2023-02-01T03:33:02.984Z,54.36
2023-02-01T03:35:55.110Z,54.20
2023-02-01T03:38:35.565Z,54.10
2023-02-01T03:41:19.312Z,54.21
2023-02-01T03:44:33.556Z,54.18
2023-02-01T03:47:11.448Z,54.45
2023-02-01T03:50:05.409Z,54.41
2023-02-01T03:52:42.040Z,54.51
2023-02-01T03:55:13.528Z,54.46
2023-02-01T03:57:50.591Z,54.36
2023-02-01T04:00:25.545Z,54.35
2023-02-01T04:02:54.460Z,54.42
2023-02-01T04:05:23.045Z,54.52
2023-02-01T04:07:57.860Z,54.64
2023-02-01T04:10:26.067Z,55.03
2023-02-01T04:12:53.848Z,55.28
2023-02-01T04:15:21.620Z,55.25
2023-02-01T04:17:49.792Z,55.50
2023-02-01T04:20:17.775Z,55.44
2023-02-01T04:22:45.735Z,55.50
2023-02-01T04:25:13.549Z,55.33
2023-02-01T04:27:41.750Z,55.27
2023-02-01T04:30:13.337Z,55.25
2023-02-01T04:32:41.141Z,55.24
2023-02-01T04:35:09.934Z,55.23
2023-02-01T04:37:37.803Z,55.26
2023-02-01T04:40:06.395Z,55.26
2023-02-01T04:42:34.275Z,55.14
2023-02-01T04:45:02.272Z,55.06
2023-02-01T04:47:30.577Z,55.25
2023-02-01T04:49:58.484Z,55.34
2023-02-01T04:52:26.297Z,55.56
2023-02-01T04:54:56.580Z,56.05
2023-02-01T04:57:25.249Z,56.28
2023-02-01T04:59:53.240Z,56.32
2023-02-01T05:02:21.116Z,56.29
2023-02-01T05:04:48.864Z,56.42
2023-02-01T05:07:16.698Z,56.15
2023-02-01T05:09:44.425Z,56.51
2023-02-01T05:12:32.646Z,56.54
2023-02-01T05:15:00.554Z,56.82
2023-02-01T05:17:28.275Z,56.78
2023-02-01T05:19:56.269Z,56.73
2023-02-01T05:22:23.987Z,57.10
2023-02-01T05:24:51.710Z,56.90
2023-02-01T05:27:19.485Z,57.05
2023-02-01T05:29:47.346Z,57.14
2023-02-01T05:32:22.979Z,57.14
2023-02-01T05:34:51.478Z,56.95
2023-02-01T05:37:19.350Z,56.78
2023-02-01T05:39:47.189Z,56.85
2023-02-01T05:42:15.251Z,56.80
2023-02-01T05:44:43.372Z,56.69
2023-02-01T05:47:11.357Z,56.73
2023-02-01T05:49:39.240Z,56.66
2023-02-01T05:52:07.302Z,56.60
2023-02-01T05:54:34.993Z,56.64
2023-02-01T05:57:03.016Z,56.56
2023-02-01T05:59:30.842Z,56.57
2023-02-01T06:01:58.989Z,56.86
2023-02-01T06:04:26.728Z,56.66
2023-02-01T06:06:54.513Z,56.74
2023-02-01T06:09:22.386Z,56.92
2023-02-01T06:11:50.212Z,57.14
2023-02-01T06:14:18.253Z,56.78
2023-02-01T06:16:47.508Z,57.24
2023-02-01T06:19:15.491Z,57.13
2023-02-01T06:21:43.344Z,57.04
2023-02-01T06:24:11.718Z,57.02
2023-02-01T06:26:40.942Z,56.89
2023-02-01T06:29:11.584Z,56.80
2023-02-01T06:31:39.523Z,57.08
2023-02-01T06:34:07.408Z,56.98
2023-02-01T06:36:35.166Z,57.21
2023-02-01T06:39:03.503Z,57.21
2023-02-01T06:41:31.200Z,57.41
2023-02-01T06:43:59.027Z,57.42
2023-02-01T06:46:26.889Z,57.26
2023-02-01T06:48:55.276Z,57.40
2023-02-01T06:51:27.280Z,57.51
2023-02-01T06:53:55.326Z,57.64
2023-02-01T06:56:23.788Z,57.63
2023-02-01T06:58:52.061Z,57.72
2023-02-01T07:01:20.252Z,57.56
2023-02-01T07:03:54.428Z,57.52
2023-02-01T07:06:22.443Z,57.32
2023-02-01T07:08:51.019Z,57.55
2023-02-01T07:11:19.888Z,57.52
2023-02-01T07:13:47.651Z,57.66
2023-02-01T07:16:21.284Z,57.32
2023-02-01T07:18:51.748Z,57.56
2023-02-01T07:21:20.974Z,57.70
2023-02-01T07:23:48.871Z,57.92
2023-02-01T07:26:17.548Z,57.82
2023-02-01T07:28:45.560Z,57.94
2023-02-01T07:31:19.201Z,57.72
2023-02-01T07:33:47.487Z,57.82
2023-02-01T07:36:18.061Z,57.50
2023-02-01T07:38:48.075Z,58.06
2023-02-01T07:41:16.612Z,57.80
2023-02-01T07:43:44.508Z,57.73
2023-02-01T07:46:12.832Z,57.79
2023-02-01T07:48:40.564Z,57.63
2023-02-01T07:51:15.044Z,57.63
2023-02-01T07:53:44.454Z,57.66
2023-02-01T07:56:16.105Z,57.63
2023-02-01T07:58:44.328Z,57.73
2023-02-01T08:01:26.999Z,57.55
2023-02-01T08:04:01.852Z,57.48
2023-02-01T08:06:35.588Z,57.50
2023-02-01T08:09:08.755Z,57.60
2023-02-01T08:11:38.718Z,57.54
2023-02-01T08:14:07.554Z,57.62
2023-02-01T08:16:37.407Z,57.68
2023-02-01T08:19:05.172Z,57.60
2023-02-01T08:21:39.219Z,57.58
2023-02-01T08:24:10.027Z,57.72
2023-02-01T08:26:38.189Z,57.78
2023-02-01T08:29:08.774Z,57.75
2023-02-01T08:31:41.630Z,57.82
2023-02-01T08:34:09.826Z,57.88
2023-02-01T08:36:39.168Z,57.76
2023-02-01T08:39:10.024Z,57.87
2023-02-01T08:41:38.466Z,57.62
2023-02-01T08:44:07.971Z,57.81
2023-02-01T08:46:35.750Z,57.75
2023-02-01T08:49:03.819Z,57.77
2023-02-01T08:51:51.562Z,57.74
2023-02-01T08:54:19.291Z,57.95
2023-02-01T08:56:47.073Z,57.83
2023-02-01T08:59:14.895Z,58.13
2023-02-01T09:01:43.040Z,57.90
2023-02-01T09:04:11.084Z,57.93
2023-02-01T09:06:42.481Z,57.98
2023-02-01T09:09:10.283Z,57.90
2023-02-01T09:11:38.049Z,57.93
2023-02-01T09:14:05.867Z,57.98
2023-02-01T09:16:33.799Z,58.21
2023-02-01T09:19:24.575Z,58.05
2023-02-01T09:21:49.583Z,58.16
2023-02-01T09:24:17.397Z,58.00
2023-02-01T09:26:45.296Z,57.90
2023-02-01T09:29:13.252Z,57.93
2023-02-01T09:31:49.766Z,58.08
2023-02-01T09:34:23.339Z,57.68
2023-02-01T09:36:51.736Z,57.81
2023-02-01T09:39:19.474Z,57.54
2023-02-01T09:42:15.235Z,57.45
2023-02-01T09:45:14.936Z,57.36
2023-02-01T09:47:52.236Z,57.08
2023-02-01T09:50:42.947Z,57.08
2023-02-01T09:53:35.658Z,56.96
2023-02-01T09:56:22.663Z,56.84
2023-02-01T09:59:02.939Z,56.93
2023-02-01T10:01:32.273Z,56.97
2023-02-01T10:04:11.244Z,56.61
2023-02-01T10:07:17.647Z,56.72
2023-02-01T10:10:01.427Z,57.16
2023-02-01T10:13:00.134Z,56.97
2023-02-01T10:15:42.622Z,57.32
2023-02-01T10:18:44.038Z,56.94
2023-02-01T10:21:19.436Z,56.71
2023-02-01T10:24:17.798Z,57.08
2023-02-01T10:27:08.373Z,57.27
2023-02-01T10:29:42.061Z,56.75
2023-02-01T10:32:31.413Z,56.86
2023-02-01T10:35:25.761Z,56.18
2023-02-01T10:37:56.804Z,56.19
2023-02-01T10:40:27.429Z,56.35
2023-02-01T10:43:01.984Z,55.97
2023-02-01T10:45:33.652Z,56.14
2023-02-01T10:48:05.063Z,56.28
2023-02-01T10:51:00.486Z,56.07
2023-02-01T10:54:02.904Z,55.65
2023-02-01T10:56:32.432Z,55.60
2023-02-01T10:59:08.090Z,55.27
2023-02-01T11:01:42.170Z,55.26
2023-02-01T11:04:29.803Z,54.87
2023-02-01T11:07:24.615Z,54.98
2023-02-01T11:09:59.170Z,55.27
2023-02-01T11:12:33.724Z,54.85
2023-02-01T11:15:25.415Z,54.85
2023-02-01T11:17:57.160Z,54.83
2023-02-01T11:20:34.577Z,54.45
2023-02-01T11:23:03.387Z,54.42
2023-02-01T11:25:36.268Z,54.33
2023-02-01T11:28:04.539Z,54.16
2023-02-01T11:30:41.204Z,54.15
2023-02-01T11:33:18.477Z,53.92
2023-02-01T11:35:48.926Z,54.13
2023-02-01T11:38:32.513Z,53.72
2023-02-01T11:41:27.642Z,53.85
2023-02-01T11:44:02.161Z,53.98
2023-02-01T11:46:33.877Z,53.52
2023-02-01T11:49:28.431Z,53.52
2023-02-01T11:52:07.975Z,53.49
2023-02-01T11:55:22.037Z,53.20
2023-02-01T11:58:25.235Z,53.30
2023-02-01T12:01:11.400Z,53.31
2023-02-01T12:04:02.659Z,52.93
2023-02-01T12:06:36.266Z,53.22
2023-02-01T12:09:22.571Z,52.72
2023-02-01T12:12:34.895Z,52.80
2023-02-01T12:15:36.718Z,52.50
2023-02-01T12:18:36.421Z,52.58
2023-02-01T12:21:43.194Z,52.38
2023-02-01T12:24:44.033Z,52.08
2023-02-01T12:27:29.687Z,52.21
2023-02-01T12:30:35.455Z,52.21
2023-02-01T12:33:38.216Z,52.24
2023-02-01T12:36:37.347Z,51.86
2023-02-01T12:39:26.287Z,51.64
2023-02-01T12:42:24.670Z,51.71
2023-02-01T12:45:16.928Z,51.96
2023-02-01T12:47:54.101Z,51.96
2023-02-01T12:50:47.120Z,51.59
2023-02-01T12:54:04.635Z,51.43
2023-02-01T12:56:46.390Z,51.82
2023-02-01T12:59:39.165Z,51.59
2023-02-01T13:02:34.275Z,51.36
2023-02-01T13:05:50.217Z,51.29
2023-02-01T13:08:44.469Z,51.22
2023-02-01T13:11:39.593Z,51.22
2023-02-01T13:14:25.601Z,51.17
2023-02-01T13:17:05.722Z,51.25
2023-02-01T13:20:09.866Z,51.21
2023-02-01T13:22:44.594Z,51.33
2023-02-01T13:25:25.381Z,51.27
2023-02-01T13:28:28.343Z,51.32
2023-02-01T13:31:30.730Z,51.18
2023-02-01T13:34:04.124Z,51.27
2023-02-01T13:37:06.306Z,50.97
2023-02-01T13:40:10.829Z,51.03
2023-02-01T13:42:58.621Z,50.63
2023-02-01T13:45:35.932Z,50.33
2023-02-01T13:48:07.880Z,50.93
2023-02-01T13:50:42.074Z,50.38
2023-02-01T13:53:12.777Z,50.17
2023-02-01T13:56:00.860Z,50.10
2023-02-01T13:58:39.776Z,50.05
2023-02-01T14:01:22.747Z,49.84
2023-02-01T14:03:56.464Z,49.87
2023-02-01T14:06:27.326Z,50.34
2023-02-01T14:09:32.516Z,50.06
2023-02-01T14:12:50.281Z,50.17
2023-02-01T14:15:28.339Z,50.15
2023-02-01T14:17:56.811Z,50.15
2023-02-01T14:20:44.878Z,49.86
2023-02-01T14:23:18.121Z,49.86
2023-02-01T14:25:48.090Z,49.88
2023-02-01T14:28:30.580Z,49.84
2023-02-01T14:31:00.529Z,49.78
2023-02-01T14:33:29.501Z,49.87
2023-02-01T14:36:14.205Z,49.61
2023-02-01T14:38:51.496Z,49.61
2023-02-01T14:41:32.698Z,49.72
2023-02-01T14:44:03.622Z,49.50
2023-02-01T14:47:04.202Z,49.49
2023-02-01T14:50:03.564Z,49.56
2023-02-01T14:53:13.826Z,49.13
2023-02-01T14:55:50.578Z,49.11
2023-02-01T14:58:53.461Z,49.09
2023-02-01T15:01:32.468Z,49.07
2023-02-01T15:04:22.902Z,49.09
2023-02-01T15:06:58.636Z,49.15
2023-02-01T15:09:55.269Z,48.97
2023-02-01T15:12:32.888Z,49.24
2023-02-01T15:15:18.096Z,48.76
2023-02-01T15:17:59.698Z,49.08
2023-02-01T15:20:34.045Z,48.91
2023-02-01T15:23:06.715Z,48.71
2023-02-01T15:25:39.506Z,48.94
2023-02-01T15:28:15.063Z,48.74
2023-02-01T15:31:04.194Z,48.45
2023-02-01T15:33:34.641Z,48.97
2023-02-01T15:36:23.424Z,48.80
2023-02-01T15:39:19.268Z,48.70
2023-02-01T15:42:19.636Z,48.49
2023-02-01T15:44:47.830Z,48.88
2023-02-01T15:47:26.780Z,48.23
2023-02-01T15:49:58.042Z,48.62
2023-02-01T15:52:32.773Z,48.38
2023-02-01T15:55:06.892Z,48.78
2023-02-01T15:57:40.395Z,48.27
2023-02-01T16:00:31.071Z,48.10
2023-02-01T16:03:26.709Z,47.98
2023-02-01T16:06:01.043Z,48.25
2023-02-01T16:08:32.935Z,48.20
2023-02-01T16:11:09.689Z,48.29
2023-02-01T16:13:37.651Z,48.43
2023-02-01T16:16:09.058Z,48.24
2023-02-01T16:18:36.810Z,48.33
2023-02-01T16:21:04.887Z,48.38
2023-02-01T16:23:32.956Z,48.26
2023-02-01T16:26:00.819Z,48.10
2023-02-01T16:28:28.845Z,48.23
2023-02-01T16:30:56.771Z,47.93
2023-02-01T16:33:25.458Z,48.10
2023-02-01T16:35:56.756Z,47.92
2023-02-01T16:38:24.795Z,48.07
2023-02-01T16:40:52.633Z,48.10
2023-02-01T16:43:26.603Z,47.78
2023-02-01T16:45:59.831Z,47.72
2023-02-01T16:48:32.874Z,47.82
2023-02-01T16:51:13.475Z,47.98
2023-02-01T16:53:53.537Z,48.00
2023-02-01T16:56:31.071Z,47.97
2023-02-01T16:58:59.909Z,48.11
2023-02-01T17:01:28.279Z,47.89
2023-02-01T17:03:56.992Z,47.96
2023-02-01T17:06:28.451Z,47.79
2023-02-01T17:09:03.214Z,47.87
2023-02-01T17:11:31.346Z,47.70
2023-02-01T17:14:19.161Z,47.66
2023-02-01T17:16:51.500Z,48.05
2023-02-01T17:19:24.365Z,48.09
2023-02-01T17:21:59.355Z,47.98
2023-02-01T17:24:46.559Z,48.08
2023-02-01T17:27:18.019Z,48.06
2023-02-01T17:29:47.116Z,48.29
2023-02-01T17:32:23.456Z,48.25
2023-02-01T17:34:52.101Z,48.33
2023-02-01T17:37:33.621Z,48.29
2023-02-01T17:40:02.007Z,48.47
2023-02-01T17:42:31.049Z,48.50
2023-02-01T17:45:11.750Z,48.36
2023-02-01T17:47:39.656Z,48.64
2023-02-01T17:50:08.427Z,48.79
2023-02-01T17:52:36.559Z,48.65
2023-02-01T17:55:23.445Z,48.60
2023-02-01T17:57:51.606Z,48.85
2023-02-01T18:00:20.608Z,48.76
2023-02-01T18:02:48.553Z,48.39
2023-02-01T18:05:50.783Z,48.29
2023-02-01T18:08:21.579Z,48.45
2023-02-01T18:11:00.784Z,48.35
2023-02-01T18:13:31.144Z,48.48
2023-02-01T18:16:03.613Z,48.50
2023-02-01T18:18:33.671Z,48.51
2023-02-01T18:21:01.770Z,48.43
2023-02-01T18:23:29.953Z,48.36
2023-02-01T18:25:57.912Z,48.13
2023-02-01T18:28:25.659Z,48.23
2023-02-01T18:30:53.564Z,48.11
2023-02-01T18:33:21.668Z,48.01
2023-02-01T18:35:50.313Z,48.11
2023-02-01T18:38:18.459Z,48.39
2023-02-01T18:40:52.517Z,48.15
2023-02-01T18:43:21.187Z,48.41
2023-02-01T18:45:49.739Z,48.23
2023-02-01T18:48:21.273Z,48.56
2023-02-01T18:50:52.062Z,48.36
2023-02-01T18:53:21.749Z,48.12
2023-02-01T18:55:50.294Z,47.95
2023-02-01T18:58:18.553Z,48.10
2023-02-01T19:00:47.512Z,47.99
2023-02-01T19:03:16.591Z,48.20
2023-02-01T19:05:45.634Z,48.16
2023-02-01T19:08:13.777Z,48.03
2023-02-01T19:10:44.807Z,48.14
2023-02-01T19:13:13.678Z,48.31
2023-02-01T19:15:42.781Z,48.33
2023-02-01T19:18:10.897Z,48.08
2023-02-01T19:20:41.354Z,47.87
2023-02-01T19:23:09.386Z,47.90
2023-02-01T19:25:37.837Z,48.12
2023-02-01T19:28:06.118Z,48.14
2023-02-01T19:30:34.013Z,48.13
2023-02-01T19:33:04.390Z,48.23
2023-02-01T19:35:32.981Z,48.23
2023-02-01T19:38:00.995Z,47.83
2023-02-01T19:40:29.024Z,48.05
2023-02-01T19:42:56.988Z,48.21
2023-02-01T19:45:25.253Z,47.93
2023-02-01T19:47:53.534Z,47.87
2023-02-01T19:50:22.661Z,48.06
2023-02-01T19:52:50.881Z,48.10
2023-02-01T19:55:18.733Z,48.02
2023-02-01T19:57:46.653Z,48.08
2023-02-01T20:00:17.029Z,48.23
2023-02-01T20:02:44.846Z,47.81
2023-02-01T20:05:12.860Z,48.04
2023-02-01T20:07:41.563Z,47.73
2023-02-01T20:10:10.070Z,47.87
2023-02-01T20:12:37.993Z,47.74
2023-02-01T20:15:08.096Z,48.08
2023-02-01T20:17:36.491Z,48.09
2023-02-01T20:20:04.991Z,47.94
2023-02-01T20:22:32.880Z,47.76
2023-02-01T20:25:03.709Z,48.11
2023-02-01T20:27:32.396Z,47.79
2023-02-01T20:30:00.593Z,47.80
2023-02-01T20:32:28.346Z,47.81
2023-02-01T20:34:56.140Z,48.20
2023-02-01T20:37:24.277Z,47.78
2023-02-01T20:39:52.087Z,48.15
2023-02-01T20:42:19.867Z,48.03
2023-02-01T20:44:47.633Z,48.06
2023-02-01T20:47:15.504Z,47.95
2023-02-01T20:49:43.326Z,48.22
2023-02-01T20:52:11.133Z,48.06
2023-02-01T20:54:38.933Z,48.20
2023-02-01T20:57:06.758Z,48.19
2023-02-01T20:59:34.573Z,48.04
2023-02-01T21:02:02.985Z,47.94
2023-02-01T21:04:32.936Z,48.02
2023-02-01T21:07:02.849Z,48.17
2023-02-01T21:09:30.946Z,48.16
2023-02-01T21:11:59.469Z,47.96
2023-02-01T21:14:27.477Z,47.81
2023-02-01T21:16:55.402Z,47.90
2023-02-01T21:19:25.276Z,48.21
2023-02-01T21:21:53.966Z,48.30
2023-02-01T21:24:21.947Z,47.94
2023-02-01T21:26:49.858Z,48.36
2023-02-01T21:29:17.887Z,48.18
2023-02-01T21:31:45.700Z,48.03
2023-02-01T21:34:13.748Z,48.12
2023-02-01T21:36:41.538Z,48.25
2023-02-01T21:39:11.503Z,48.28
2023-02-01T21:41:58.442Z,48.59
2023-02-01T21:44:26.387Z,48.36
2023-02-01T21:46:55.644Z,48.37
2023-02-01T21:49:28.704Z,48.66
2023-02-01T21:51:57.104Z,48.60
2023-02-01T21:54:24.835Z,48.74
2023-02-01T21:56:53.283Z,48.65
2023-02-01T21:59:21.086Z,48.68
2023-02-01T22:01:48.804Z,48.64
2023-02-01T22:04:17.040Z,48.96
2023-02-01T22:06:45.905Z,48.74
2023-02-01T22:09:19.829Z,48.84
2023-02-01T22:11:49.062Z,49.09
2023-02-01T22:14:17.249Z,48.92
2023-02-01T22:16:45.716Z,49.03
2023-02-01T22:19:14.136Z,49.09
2023-02-01T22:21:45.694Z,49.13
2023-02-01T22:24:22.350Z,48.99
2023-02-01T22:26:50.716Z,49.08
2023-02-01T22:29:19.350Z,49.22
2023-02-01T22:31:47.705Z,48.92
2023-02-01T22:34:15.925Z,48.97
2023-02-01T22:36:44.159Z,49.26
2023-02-01T22:39:12.114Z,49.27
2023-02-01T22:41:40.198Z,48.98
2023-02-01T22:44:08.187Z,49.17
2023-02-01T22:46:36.157Z,49.21
2023-02-01T22:49:04.778Z,48.94
2023-02-01T22:51:33.257Z,49.03
2023-02-01T22:54:01.505Z,49.22
2023-02-01T22:56:35.880Z,49.12
2023-02-01T22:59:06.947Z,49.23
2023-02-01T23:01:35.397Z,49.58
2023-02-01T23:04:07.817Z,49.12
2023-02-01T23:06:36.176Z,49.29
2023-02-01T23:09:17.489Z,49.33
2023-02-01T23:11:45.851Z,49.75
2023-02-01T23:14:15.430Z,49.56
2023-02-01T23:16:48.439Z,49.76
2023-02-01T23:19:18.156Z,49.73
2023-02-01T23:21:46.424Z,49.68
2023-02-01T23:24:14.235Z,49.63
2023-02-01T23:26:42.491Z,49.59
2023-02-01T23:29:18.133Z,49.75
2023-02-01T23:31:46.065Z,49.54
2023-02-01T23:34:13.804Z,49.84
2023-02-01T23:36:41.509Z,49.86
2023-02-01T23:39:09.319Z,49.82
2023-02-01T23:41:37.204Z,49.76
2023-02-01T23:44:05.339Z,49.84
2023-02-01T23:46:44.419Z,49.59
2023-02-01T23:49:13.556Z,50.06
2023-02-01T23:51:42.508Z,49.97
2023-02-01T23:54:12.046Z,49.77
2023-02-01T23:56:43.653Z,49.89
2023-02-01T23:59:21.958Z,50.03
